Time;durP1;ratioP1;P1;durP2;ratioP2;P2;SDS_P1;SDS_P2;PMS_P1;PMS_P2;Temp;Humidity;BMP_temperature;BMP_pressure;BME280_temperature;BME280_humidity;BME280_pressure;Samples;Min_cycle;Max_cycle;Signal;HPM_P1;HPM_P2
2023/12/28 00:01:55;;;;;;;4.97;3.20;;;5.90;47.60;;;;;;4974276;28;20023;-76
2023/12/28 00:04:21;;;;;;;5.60;3.35;;;5.90;48.30;;;;;;4973820;28;20369;-76
2023/12/28 00:06:46;;;;;;;5.55;3.35;;;5.90;48.40;;;;;;4974298;28;20033;-76
2023/12/28 00:09:12;;;;;;;6.70;2.90;;;5.80;48.60;;;;;;4974215;28;20114;-76
2023/12/28 00:11:38;;;;;;;5.57;2.70;;;5.80;48.10;;;;;;4974180;28;20118;-76
2023/12/28 00:14:03;;;;;;;5.82;3.33;;;5.90;48.20;;;;;;4974164;28;20077;-76
2023/12/28 00:16:32;;;;;;;5.97;2.72;;;6.00;48.30;;;;;;4974070;28;20023;-76
2023/12/28 00:18:58;;;;;;;4.00;2.92;;;5.90;46.90;;;;;;4974093;28;20058;-75
2023/12/28 00:21:23;;;;;;;5.07;3.60;;;6.00;47.20;;;;;;4974066;28;20035;-76
2023/12/28 00:23:49;;;;;;;6.22;3.10;;;6.10;47.40;;;;;;4973886;28;20078;-77
2023/12/28 00:26:16;;;;;;;4.18;2.53;;;6.20;47.40;;;;;;4956815;28;20503;-78
2023/12/28 00:28:42;;;;;;;3.72;2.10;;;6.20;46.00;;;;;;4956633;28;20042;-78
2023/12/28 00:31:09;;;;;;;4.43;2.88;;;6.40;43.50;;;;;;4956836;28;20034;-78
2023/12/28 00:33:35;;;;;;;3.90;2.40;;;6.60;44.30;;;;;;4974088;28;20036;-78
2023/12/28 00:36:00;;;;;;;4.75;1.67;;;6.70;44.10;;;;;;4974072;28;20031;-78
2023/12/28 00:38:26;;;;;;;2.10;1.40;;;6.90;41.70;;;;;;4976957;28;20515;-78
2023/12/28 00:40:51;;;;;;;2.42;1.55;;;7.70;38.00;;;;;;4978026;28;20033;-78
2023/12/28 00:43:17;;;;;;;3.22;1.80;;;8.60;35.20;;;;;;4977754;28;20026;-78
2023/12/28 00:45:42;;;;;;;3.38;2.30;;;8.80;35.70;;;;;;4977794;28;20030;-78
2023/12/28 00:48:08;;;;;;;4.85;2.80;;;8.80;37.20;;;;;;4960450;28;20033;-78
2023/12/28 00:50:33;;;;;;;4.55;2.47;;;8.60;38.50;;;;;;4983254;28;20057;-79
2023/12/28 00:52:59;;;;;;;4.13;3.05;;;8.30;39.50;;;;;;4977480;28;20081;-78
2023/12/28 00:55:25;;;;;;;5.60;3.70;;;7.90;41.10;;;;;;4978006;28;20031;-75
2023/12/28 00:57:50;;;;;;;7.25;4.05;;;7.60;42.70;;;;;;4978414;28;20019;-78
2023/12/28 01:00:16;;;;;;;7.82;3.97;;;7.30;44.10;;;;;;4979026;28;20369;-78
2023/12/28 01:02:42;;;;;;;5.32;3.53;;;7.10;44.90;;;;;;4978340;28;20444;-78
2023/12/28 01:05:08;;;;;;;5.35;2.70;;;6.90;45.40;;;;;;4978210;28;20134;-78
2023/12/28 01:07:33;;;;;;;3.55;2.70;;;6.70;45.80;;;;;;4961093;28;20050;-78
2023/12/28 01:09:59;;;;;;;6.70;2.88;;;6.60;45.90;;;;;;4977389;28;20110;-79
2023/12/28 01:12:24;;;;;;;5.07;3.38;;;6.50;46.10;;;;;;4977880;28;20058;-78
2023/12/28 01:14:50;;;;;;;5.28;2.95;;;6.60;46.10;;;;;;4978248;28;20042;-76
2023/12/28 01:17:15;;;;;;;5.28;3.20;;;6.50;46.20;;;;;;4977758;28;20651;-76
2023/12/28 01:19:41;;;;;;;3.85;2.30;;;6.50;46.20;;;;;;4977723;28;20023;-76
2023/12/28 01:22:06;;;;;;;4.82;2.53;;;6.60;46.10;;;;;;4960737;28;20026;-77
2023/12/28 01:24:33;;;;;;;4.15;2.42;;;6.60;45.50;;;;;;4960685;28;20408;-78
2023/12/28 01:26:58;;;;;;;4.15;2.10;;;6.60;45.50;;;;;;4977631;28;20022;-79
2023/12/28 01:29:24;;;;;;;2.88;1.90;;;6.70;45.00;;;;;;4977526;28;20031;-78
2023/12/28 01:31:49;;;;;;;3.20;1.75;;;6.80;44.50;;;;;;4977466;28;20031;-77
2023/12/28 01:34:15;;;;;;;3.47;2.03;;;6.90;44.70;;;;;;4977927;28;20033;-77
2023/12/28 01:36:44;;;;;;;2.03;1.50;;;6.90;44.10;;;;;;4977166;28;20049;-75
2023/12/28 01:39:10;;;;;;;2.30;1.70;;;7.00;43.80;;;;;;4977180;28;20030;-74
2023/12/28 01:41:36;;;;;;;2.20;1.58;;;7.10;43.00;;;;;;4960156;28;20026;-76
2023/12/28 01:44:02;;;;;;;2.65;1.48;;;7.20;43.80;;;;;;4977368;28;20039;-77
2023/12/28 01:46:27;;;;;;;3.08;1.60;;;7.10;43.70;;;;;;4977511;28;20027;-78
2023/12/28 01:48:53;;;;;;;2.28;1.27;;;7.20;42.90;;;;;;4976395;28;20037;-78
2023/12/28 01:51:20;;;;;;;1.88;1.35;;;7.40;38.80;;;;;;4976613;28;20023;-77
2023/12/28 01:53:49;;;;;;;2.13;1.52;;;7.70;38.60;;;;;;4976559;28;20023;-77
2023/12/28 01:56:15;;;;;;;2.88;1.98;;;8.00;37.50;;;;;;4976564;28;20097;-77
2023/12/28 01:58:42;;;;;;;2.42;1.63;;;8.20;38.70;;;;;;4976433;28;20046;-75
2023/12/28 02:01:09;;;;;;;3.20;1.40;;;8.10;39.70;;;;;;4976256;28;20030;-74
2023/12/28 02:03:35;;;;;;;2.45;1.85;;;8.00;39.20;;;;;;4958711;28;20061;-75
2023/12/28 02:06:01;;;;;;;3.03;1.63;;;8.00;39.50;;;;;;4976372;28;20480;-76
2023/12/28 02:08:26;;;;;;;2.88;1.90;;;8.00;40.70;;;;;;4976633;28;20046;-77
2023/12/28 02:10:52;;;;;;;2.38;1.60;;;7.80;40.50;;;;;;4976300;28;20571;-77
2023/12/28 02:13:18;;;;;;;3.40;2.20;;;7.70;40.80;;;;;;4981190;28;20058;-76
2023/12/28 02:15:46;;;;;;;2.40;1.70;;;7.70;41.30;;;;;;4976095;28;20035;-76
2023/12/28 02:18:17;;;;;;;3.15;1.77;;;7.70;39.10;;;;;;4976803;28;20030;-76
2023/12/28 02:20:44;;;;;;;3.97;1.52;;;7.80;39.60;;;;;;4976164;28;20143;-78
2023/12/28 02:23:10;;;;;;;1.88;1.33;;;7.80;40.20;;;;;;4977703;28;20057;-78
2023/12/28 02:25:36;;;;;;;2.38;1.60;;;8.00;37.30;;;;;;4976039;28;20043;-77
2023/12/28 02:28:02;;;;;;;1.83;1.33;;;8.20;38.20;;;;;;4984983;28;20026;-76
2023/12/28 02:30:29;;;;;;;1.25;1.13;;;8.30;37.10;;;;;;4976825;28;20085;-77
2023/12/28 02:33:00;;;;;;;2.10;1.70;;;8.60;35.10;;;;;;4976221;28;20023;-76
2023/12/28 02:35:45;;;;;;;1.73;1.48;;;9.00;33.80;;;;;;4958477;28;20022;-74
2023/12/28 02:38:13;;;;;;;2.22;1.33;;;9.40;32.60;;;;;;4975801;28;20023;-76
2023/12/28 02:40:43;;;;;;;2.22;1.20;;;9.80;31.50;;;;;;4975605;28;20026;-76
2023/12/28 02:43:10;;;;;;;1.83;1.20;;;10.20;30.40;;;;;;4975673;28;20164;-76
2023/12/28 02:45:37;;;;;;;2.25;1.30;;;10.40;30.30;;;;;;4975440;28;20077;-75
2023/12/28 02:48:03;;;;;;;4.35;1.30;;;10.40;30.00;;;;;;4975594;28;20042;-76
2023/12/28 02:50:30;;;;;;;3.38;1.60;;;10.40;30.10;;;;;;4975449;28;20027;-76
2023/12/28 02:52:56;;;;;;;2.00;1.40;;;10.50;30.10;;;;;;4975403;28;20019;-76
2023/12/28 02:55:22;;;;;;;2.55;1.60;;;10.60;29.70;;;;;;4958008;28;20027;-76
2023/12/28 02:57:49;;;;;;;2.63;1.50;;;10.60;29.40;;;;;;4975290;28;20023;-75
2023/12/28 03:00:57;;;;;;;2.28;1.50;;;10.60;29.70;;;;;;4974693;28;20388;-76
2023/12/28 03:03:23;;;;;;;3.63;1.30;;;10.60;29.40;;;;;;4891548;28;20043;-76
2023/12/28 03:05:48;;;;;;;1.63;1.30;;;10.70;29.30;;;;;;4975094;28;20081;-76
2023/12/28 03:08:14;;;;;;;2.20;1.38;;;10.70;29.70;;;;;;4975051;28;20023;-76
2023/12/28 03:10:39;;;;;;;3.45;1.30;;;10.70;29.50;;;;;;4974990;28;20073;-75
2023/12/28 03:13:05;;;;;;;1.50;1.35;;;10.70;29.60;;;;;;4957767;28;20022;-77
2023/12/28 03:15:31;;;;;;;2.25;1.25;;;10.70;29.60;;;;;;4957726;28;20025;-77
2023/12/28 03:17:56;;;;;;;2.28;1.15;;;10.80;29.50;;;;;;4957701;28;20400;-75
2023/12/28 03:20:22;;;;;;;3.05;1.25;;;10.80;29.40;;;;;;4974908;28;20384;-76
2023/12/28 03:22:47;;;;;;;1.58;1.10;;;10.80;29.60;;;;;;4974796;28;20031;-76
2023/12/28 03:25:14;;;;;;;4.28;1.20;;;10.90;29.50;;;;;;4974848;28;20093;-76
2023/12/28 03:27:39;;;;;;;1.65;1.23;;;10.80;29.80;;;;;;4974879;28;20038;-76
2023/12/28 03:30:06;;;;;;;1.63;1.05;;;10.80;30.30;;;;;;4975002;28;20023;-78
2023/12/28 03:32:31;;;;;;;2.53;1.10;;;10.80;30.10;;;;;;4975270;28;20023;-77
2023/12/28 03:34:57;;;;;;;1.30;1.10;;;10.90;30.00;;;;;;4975178;28;20110;-75
2023/12/28 03:37:23;;;;;;;1.48;1.00;;;10.90;30.00;;;;;;4974833;28;20030;-77
2023/12/28 03:39:48;;;;;;;1.88;1.10;;;10.90;30.00;;;;;;4974877;28;20097;-78
2023/12/28 03:42:14;;;;;;;2.85;1.30;;;10.90;30.00;;;;;;4974509;28;20027;-76
2023/12/28 03:44:39;;;;;;;4.50;1.45;;;10.80;30.40;;;;;;4974417;28;20073;-75
2023/12/28 03:47:05;;;;;;;1.20;1.10;;;10.90;30.60;;;;;;4974557;28;20082;-75
2023/12/28 03:49:31;;;;;;;1.20;0.93;;;10.80;30.80;;;;;;4957547;28;20082;-76
2023/12/28 03:51:56;;;;;;;2.25;1.00;;;10.80;30.80;;;;;;4974597;28;20023;-76
2023/12/28 03:54:22;;;;;;;5.78;1.40;;;10.90;30.80;;;;;;4974499;28;20023;-75
2023/12/28 03:56:47;;;;;;;1.45;1.05;;;11.00;30.60;;;;;;4974424;28;20031;-77
2023/12/28 03:59:15;;;;;;;2.90;1.02;;;11.00;30.70;;;;;;4974263;28;20031;-75
2023/12/28 04:01:40;;;;;;;2.63;1.05;;;10.90;31.00;;;;;;4974348;28;20042;-75
2023/12/28 04:04:06;;;;;;;2.13;1.20;;;10.90;31.30;;;;;;4974296;28;20476;-77
2023/12/28 04:06:31;;;;;;;2.47;1.42;;;10.90;31.30;;;;;;4956939;28;20058;-76
2023/12/28 04:08:57;;;;;;;1.90;1.10;;;10.80;31.50;;;;;;4974005;28;20052;-77
2023/12/28 04:11:23;;;;;;;2.17;1.23;;;10.80;31.80;;;;;;4973628;28;20047;-76
2023/12/28 04:13:48;;;;;;;1.88;0.93;;;10.70;32.30;;;;;;4973995;28;20027;-75
2023/12/28 04:16:14;;;;;;;2.55;1.00;;;10.80;32.30;;;;;;4974358;28;20023;-76
2023/12/28 04:18:41;;;;;;;1.98;1.20;;;10.70;32.60;;;;;;4974085;28;20057;-75
2023/12/28 04:21:10;;;;;;;4.03;1.40;;;10.70;32.90;;;;;;4974061;28;20030;-76
2023/12/28 04:23:38;;;;;;;2.95;0.80;;;10.70;33.10;;;;;;4956583;28;20480;-76
2023/12/28 04:26:04;;;;;;;2.83;1.00;;;10.70;33.30;;;;;;4973908;28;20026;-76
2023/12/28 04:28:30;;;;;;;3.40;1.20;;;10.70;33.60;;;;;;4956617;28;20502;-76
2023/12/28 04:30:55;;;;;;;1.95;1.00;;;10.70;33.70;;;;;;4973974;28;20076;-75
2023/12/28 04:33:21;;;;;;;1.20;0.90;;;10.70;34.00;;;;;;4973975;28;20022;-76
2023/12/28 04:35:46;;;;;;;2.60;1.40;;;10.70;34.20;;;;;;4973914;28;20031;-75
2023/12/28 04:38:12;;;;;;;1.70;1.17;;;10.70;34.40;;;;;;4973967;28;20105;-74
2023/12/28 04:40:38;;;;;;;2.05;1.10;;;10.70;34.80;;;;;;4956401;28;20168;-74
2023/12/28 04:43:03;;;;;;;2.97;1.10;;;10.70;35.10;;;;;;4973913;28;20101;-74
2023/12/28 04:45:29;;;;;;;2.63;0.90;;;10.70;35.20;;;;;;4956349;28;20046;-74
2023/12/28 04:47:54;;;;;;;1.60;1.13;;;10.70;35.50;;;;;;4973777;28;20023;-77
2023/12/28 04:50:20;;;;;;;2.63;0.93;;;10.70;35.80;;;;;;4956544;28;20093;-77
2023/12/28 04:52:46;;;;;;;1.52;0.70;;;10.60;36.20;;;;;;4973781;28;20512;-77
2023/12/28 04:55:11;;;;;;;1.83;1.13;;;10.60;36.90;;;;;;4956118;28;20031;-75
2023/12/28 04:57:37;;;;;;;1.40;1.15;;;10.70;37.80;;;;;;4977004;28;20033;-76
2023/12/28 05:00:03;;;;;;;3.47;1.10;;;10.70;38.30;;;;;;4975211;28;20030;-76
2023/12/28 05:02:29;;;;;;;1.02;0.90;;;10.70;38.70;;;;;;4957092;28;20495;-75
2023/12/28 05:04:54;;;;;;;2.13;0.82;;;10.70;39.60;;;;;;4954134;29;20047;-75
2023/12/28 05:07:20;;;;;;;1.50;0.82;;;10.80;40.30;;;;;;4954360;28;20019;-76
2023/12/28 05:09:45;;;;;;;1.88;1.00;;;10.70;40.50;;;;;;4954353;29;20062;-74
2023/12/28 05:12:11;;;;;;;2.22;0.90;;;10.60;41.10;;;;;;4953969;28;20492;-75
2023/12/28 05:14:36;;;;;;;2.13;1.00;;;10.70;41.30;;;;;;4954179;28;20031;-76
2023/12/28 05:17:02;;;;;;;2.13;0.68;;;10.70;42.20;;;;;;4954315;28;20019;-75
2023/12/28 05:19:28;;;;;;;1.17;0.90;;;10.70;42.90;;;;;;4954094;28;20425;-74
2023/12/28 05:21:53;;;;;;;1.38;0.90;;;10.70;43.30;;;;;;4954269;29;20392;-76
2023/12/28 05:24:19;;;;;;;1.60;1.08;;;10.70;43.20;;;;;;4939271;29;20507;-76
2023/12/28 05:26:44;;;;;;;2.30;0.90;;;10.70;43.00;;;;;;4957577;29;20503;-76
2023/12/28 05:29:10;;;;;;;1.17;0.70;;;10.70;43.40;;;;;;4957610;28;20035;-75
2023/12/28 05:31:36;;;;;;;2.40;1.13;;;10.70;44.20;;;;;;4957220;28;20095;-75
2023/12/28 05:34:02;;;;;;;1.05;0.70;;;10.70;44.60;;;;;;4957419;28;20469;-75
2023/12/28 05:36:27;;;;;;;2.58;1.13;;;10.80;45.00;;;;;;4957478;29;20028;-76
2023/12/28 05:38:53;;;;;;;2.63;1.20;;;10.70;46.30;;;;;;4957372;28;20074;-75
2023/12/28 05:41:18;;;;;;;2.67;0.88;;;10.90;46.70;;;;;;4940085;29;20023;-75
2023/12/28 05:43:44;;;;;;;1.85;1.08;;;11.00;46.50;;;;;;4957198;28;20035;-76
2023/12/28 05:46:09;;;;;;;2.03;1.17;;;10.90;46.00;;;;;;4957097;28;20051;-77
2023/12/28 05:48:35;;;;;;;2.22;1.25;;;11.00;45.50;;;;;;4957221;28;20432;-75
2023/12/28 05:51:01;;;;;;;2.25;1.20;;;11.10;45.40;;;;;;4957137;28;20031;-75
2023/12/28 05:53:27;;;;;;;3.53;1.15;;;11.10;45.20;;;;;;4957143;28;20027;-75
2023/12/28 05:55:53;;;;;;;3.83;0.85;;;11.10;45.30;;;;;;4957173;28;20031;-76
2023/12/28 05:58:18;;;;;;;3.28;0.98;;;11.20;45.80;;;;;;4957100;29;20027;-75
2023/12/28 06:00:46;;;;;;;3.35;1.10;;;11.20;46.00;;;;;;4973665;28;20031;-76
2023/12/28 06:03:11;;;;;;;3.90;1.13;;;11.20;46.60;;;;;;4976037;28;20054;-75
2023/12/28 06:05:37;;;;;;;1.95;0.95;;;11.20;46.90;;;;;;4975963;28;20066;-76
2023/12/28 06:08:03;;;;;;;1.48;0.90;;;11.10;47.40;;;;;;4976208;28;20059;-75
2023/12/28 06:10:28;;;;;;;2.47;1.10;;;11.20;47.70;;;;;;4975945;28;20391;-77
2023/12/28 06:12:54;;;;;;;1.13;0.88;;;11.20;47.60;;;;;;4976140;28;20030;-77
2023/12/28 06:15:19;;;;;;;2.10;1.00;;;11.20;47.80;;;;;;4976229;28;20219;-79
2023/12/28 06:17:45;;;;;;;3.95;1.52;;;11.10;48.10;;;;;;4975957;28;20391;-79
2023/12/28 06:20:11;;;;;;;2.13;1.02;;;11.10;47.80;;;;;;4975064;28;20083;-77
2023/12/28 06:22:37;;;;;;;4.68;1.38;;;11.10;48.00;;;;;;4956825;28;20031;-78
2023/12/28 06:25:03;;;;;;;4.47;1.60;;;11.10;48.00;;;;;;4940331;29;20043;-77
2023/12/28 06:27:29;;;;;;;3.75;1.73;;;11.10;48.20;;;;;;4956808;28;20461;-78
2023/12/28 06:29:54;;;;;;;3.70;1.73;;;11.00;48.30;;;;;;4957571;28;20034;-76
2023/12/28 06:32:20;;;;;;;6.13;2.92;;;11.00;48.20;;;;;;4960539;29;20032;-75
2023/12/28 06:34:46;;;;;;;4.10;1.58;;;11.00;48.20;;;;;;4939235;29;20027;-75
2023/12/28 06:37:11;;;;;;;2.13;0.90;;;11.00;48.30;;;;;;4957023;29;20097;-77
2023/12/28 06:39:37;;;;;;;1.42;1.00;;;11.00;48.40;;;;;;4956422;28;20392;-76
2023/12/28 06:42:03;;;;;;;3.15;0.90;;;11.00;48.30;;;;;;4956624;29;20027;-75
2023/12/28 06:44:28;;;;;;;3.92;1.02;;;11.00;48.50;;;;;;4956095;28;20035;-75
2023/12/28 06:46:54;;;;;;;2.67;1.30;;;11.00;47.80;;;;;;4956018;29;20469;-74
2023/12/28 06:49:19;;;;;;;1.98;1.10;;;11.10;47.40;;;;;;4956068;28;20520;-78
2023/12/28 06:51:46;;;;;;;2.00;0.93;;;11.10;47.10;;;;;;4939119;29;20441;-79
2023/12/28 06:54:11;;;;;;;2.70;1.25;;;11.20;47.80;;;;;;4958199;28;20604;-86
2023/12/28 06:56:37;;;;;;;4.70;1.40;;;11.20;48.80;;;;;;4941599;29;20054;-87
2023/12/28 06:59:03;;;;;;;3.10;1.30;;;11.40;49.50;;;;;;4940803;29;20059;-78
2023/12/28 07:01:28;;;;;;;3.25;1.70;;;11.50;47.50;;;;;;4956754;29;20030;-82
2023/12/28 07:03:54;;;;;;;2.92;1.80;;;11.70;47.10;;;;;;4940519;29;20036;-82
2023/12/28 07:06:19;;;;;;;3.92;1.50;;;11.70;43.60;;;;;;4940782;29;20427;-82
2023/12/28 07:08:45;;;;;;;4.20;1.17;;;11.70;43.20;;;;;;4955856;28;20424;-86
2023/12/28 07:11:11;;;;;;;1.70;1.00;;;11.70;42.70;;;;;;4938789;29;20130;-76
2023/12/28 07:13:44;;;;;;;2.60;1.42;;;11.70;41.90;;;;;;4955845;29;20051;-76
2023/12/28 07:16:10;;;;;;;2.15;1.02;;;11.70;41.20;;;;;;4938388;29;20023;-72
2023/12/28 07:18:35;;;;;;;2.60;1.10;;;11.60;40.80;;;;;;4955734;28;20105;-74
2023/12/28 07:21:01;;;;;;;5.03;1.83;;;11.60;41.90;;;;;;4938568;29;20086;-83
2023/12/28 07:23:27;;;;;;;3.40;1.73;;;11.70;42.30;;;;;;4956529;28;20023;-82
2023/12/28 07:25:52;;;;;;;2.55;1.55;;;11.80;41.00;;;;;;4941255;29;20098;-84
2023/12/28 07:28:18;;;;;;;2.20;1.20;;;11.80;40.60;;;;;;4938968;29;20032;-83
2023/12/28 07:30:44;;;;;;;4.07;1.20;;;11.70;39.70;;;;;;4941370;29;20516;-81
2023/12/28 07:33:09;;;;;;;1.55;1.00;;;11.70;40.00;;;;;;4956985;29;20019;-79
2023/12/28 07:35:35;;;;;;;3.42;1.33;;;11.70;40.30;;;;;;4938450;29;20037;-83
2023/12/28 07:38:01;;;;;;;2.03;1.33;;;11.60;39.40;;;;;;4939796;29;20039;-83
2023/12/28 07:40:26;;;;;;;1.42;1.00;;;11.70;39.50;;;;;;4942215;29;20380;-74
2023/12/28 07:42:52;;;;;;;2.28;1.20;;;11.60;39.60;;;;;;4955184;29;20034;-74
2023/12/28 07:45:22;;;;;;;2.45;1.30;;;11.70;38.90;;;;;;4955016;29;20047;-77
2023/12/28 07:47:48;;;;;;;1.75;1.10;;;11.80;39.00;;;;;;4954167;28;20019;-77
2023/12/28 07:50:15;;;;;;;2.47;1.30;;;11.90;39.70;;;;;;4955104;29;20031;-76
2023/12/28 07:52:41;;;;;;;1.88;1.20;;;11.90;38.70;;;;;;4954960;28;20020;-76
2023/12/28 07:55:07;;;;;;;2.15;1.05;;;11.80;38.30;;;;;;4937810;29;20031;-79
2023/12/28 07:57:34;;;;;;;2.13;1.48;;;11.60;38.60;;;;;;4937667;29;20127;-73
2023/12/28 07:59:59;;;;;;;3.42;1.40;;;11.60;38.70;;;;;;4954930;28;20078;-73
2023/12/28 08:02:25;;;;;;;2.28;1.30;;;11.50;39.00;;;;;;4954956;28;20031;-73
2023/12/28 08:04:50;;;;;;;2.40;1.15;;;11.50;39.30;;;;;;4954815;29;20027;-75
2023/12/28 08:07:16;;;;;;;3.42;1.02;;;11.40;39.20;;;;;;4954724;29;20027;-74
2023/12/28 08:09:42;;;;;;;1.50;1.20;;;11.40;39.30;;;;;;4955033;29;20023;-73
2023/12/28 08:12:07;;;;;;;2.72;1.50;;;11.40;39.60;;;;;;4955466;29;20047;-73
2023/12/28 08:14:33;;;;;;;8.98;1.90;;;11.40;39.70;;;;;;4955411;29;20122;-74
2023/12/28 08:16:58;;;;;;;4.60;1.20;;;11.30;39.90;;;;;;4954742;29;20476;-73
2023/12/28 08:19:24;;;;;;;2.17;1.10;;;11.30;40.10;;;;;;4954407;29;20031;-73
2023/12/28 08:21:49;;;;;;;4.28;1.38;;;11.30;40.10;;;;;;4954970;29;20031;-73
2023/12/28 08:24:16;;;;;;;5.63;1.42;;;11.30;40.40;;;;;;4937533;29;20038;-73
2023/12/28 08:26:41;;;;;;;2.65;1.10;;;11.30;40.60;;;;;;4954765;29;20098;-73
2023/12/28 08:29:07;;;;;;;2.75;1.40;;;11.30;40.70;;;;;;4954707;28;20469;-75
2023/12/28 08:31:32;;;;;;;2.40;1.42;;;11.30;40.80;;;;;;4937792;29;20035;-73
2023/12/28 08:33:58;;;;;;;3.75;1.20;;;11.30;41.90;;;;;;4937337;29;20019;-74
2023/12/28 08:36:24;;;;;;;2.53;1.20;;;11.20;41.30;;;;;;4937377;29;20035;-74
2023/12/28 08:38:49;;;;;;;4.65;1.50;;;11.30;41.50;;;;;;4937601;29;20027;-74
2023/12/28 08:41:26;;;;;;;3.30;1.50;;;11.30;41.40;;;;;;4937439;29;20027;-74
2023/12/28 08:43:53;;;;;;;2.50;1.30;;;11.30;41.70;;;;;;4937641;29;20032;-74
2023/12/28 08:46:20;;;;;;;2.70;1.50;;;11.30;41.50;;;;;;4937280;29;20038;-74
2023/12/28 08:48:45;;;;;;;3.58;1.33;;;11.40;41.60;;;;;;4954365;28;20070;-74
2023/12/28 08:51:11;;;;;;;2.13;1.27;;;11.30;41.80;;;;;;4954216;29;20035;-73
2023/12/28 08:53:38;;;;;;;6.90;1.48;;;11.30;41.60;;;;;;4937071;29;20023;-74
2023/12/28 08:56:16;;;;;;;2.35;1.15;;;11.30;41.90;;;;;;4954785;28;20146;-78
2023/12/28 08:58:42;;;;;;;2.90;1.13;;;11.40;41.70;;;;;;4958187;28;20106;-73
2023/12/28 09:01:07;;;;;;;3.13;1.27;;;11.40;41.90;;;;;;4958628;29;20114;-77
2023/12/28 09:03:33;;;;;;;2.25;1.08;;;11.40;42.00;;;;;;4940846;29;20392;-74
2023/12/28 09:05:58;;;;;;;1.77;1.00;;;11.40;42.20;;;;;;4941132;29;20038;-73
2023/12/28 09:08:24;;;;;;;2.42;1.10;;;11.40;42.30;;;;;;4941292;29;20031;-74
2023/12/28 09:10:49;;;;;;;1.55;0.80;;;11.40;42.80;;;;;;4937714;29;20408;-74
2023/12/28 09:13:19;;;;;;;2.55;1.17;;;11.40;43.10;;;;;;4937719;29;20035;-75
2023/12/28 09:15:46;;;;;;;3.63;1.52;;;11.40;43.70;;;;;;4922383;29;20040;-75
2023/12/28 09:18:12;;;;;;;3.00;1.05;;;11.50;44.60;;;;;;4938551;29;20070;-73
2023/12/28 09:20:37;;;;;;;2.28;1.42;;;11.50;45.80;;;;;;4937420;29;20043;-74
2023/12/28 09:23:03;;;;;;;2.67;1.00;;;11.50;47.20;;;;;;4937351;29;20540;-74
2023/12/28 09:25:28;;;;;;;2.10;0.90;;;11.50;47.70;;;;;;4937972;29;20036;-74
2023/12/28 09:27:54;;;;;;;1.58;0.95;;;11.50;48.80;;;;;;4938153;29;20038;-73
2023/12/28 09:30:19;;;;;;;1.33;1.00;;;11.50;48.00;;;;;;4937023;29;20020;-74
2023/12/28 09:32:45;;;;;;;2.65;0.88;;;11.50;47.80;;;;;;4936870;29;20023;-74
2023/12/28 09:35:11;;;;;;;2.00;1.23;;;11.50;48.60;;;;;;4936854;29;20027;-73
2023/12/28 09:37:38;;;;;;;1.73;1.20;;;11.60;48.70;;;;;;4936579;29;20432;-74
2023/12/28 09:40:04;;;;;;;2.63;1.30;;;11.50;49.10;;;;;;4936624;29;20118;-74
2023/12/28 09:42:39;;;;;;;1.58;0.75;;;11.50;49.60;;;;;;4936981;29;20171;-75
2023/12/28 09:45:06;;;;;;;3.50;1.25;;;11.50;50.30;;;;;;4936204;29;20457;-75
2023/12/28 09:47:33;;;;;;;2.90;1.25;;;11.40;50.70;;;;;;4936607;29;20477;-75
2023/12/28 09:49:59;;;;;;;3.55;1.23;;;11.40;51.20;;;;;;4936858;29;20032;-74
2023/12/28 09:52:25;;;;;;;1.77;1.13;;;11.40;51.60;;;;;;4937775;29;20377;-74
2023/12/28 09:54:50;;;;;;;4.53;1.30;;;11.50;52.30;;;;;;4936897;29;20090;-75
2023/12/28 09:57:17;;;;;;;2.40;1.40;;;11.40;52.70;;;;;;4936606;29;20039;-74
2023/12/28 09:59:43;;;;;;;1.70;1.25;;;11.30;53.30;;;;;;4936381;29;20039;-74
2023/12/28 10:02:10;;;;;;;1.27;0.90;;;11.30;53.80;;;;;;4936802;29;20079;-73
2023/12/28 10:04:36;;;;;;;1.85;1.25;;;11.20;54.00;;;;;;4936427;29;20572;-76
2023/12/28 10:07:02;;;;;;;2.58;1.10;;;11.20;54.40;;;;;;4937732;29;20107;-75
2023/12/28 10:09:30;;;;;;;1.90;1.13;;;11.20;54.90;;;;;;4936682;29;20034;-73
2023/12/28 10:11:56;;;;;;;1.88;1.00;;;11.20;55.40;;;;;;4936081;29;20483;-74
2023/12/28 10:14:21;;;;;;;1.05;0.77;;;11.10;55.90;;;;;;4935488;29;20028;-75
2023/12/28 10:16:49;;;;;;;1.15;0.88;;;11.10;55.80;;;;;;4935236;29;20030;-73
2023/12/28 10:19:14;;;;;;;2.10;0.93;;;11.10;56.80;;;;;;4937750;29;20055;-73
2023/12/28 10:21:40;;;;;;;1.45;0.88;;;11.10;57.20;;;;;;4936991;29;20062;-73
2023/12/28 10:24:06;;;;;;;2.67;1.20;;;11.10;57.40;;;;;;4936950;29;20039;-74
2023/12/28 10:26:31;;;;;;;3.03;1.25;;;11.20;57.50;;;;;;4937016;29;20039;-74
2023/12/28 10:29:00;;;;;;;2.80;0.95;;;11.10;58.40;;;;;;4935832;29;20038;-74
2023/12/28 10:31:26;;;;;;;2.85;1.02;;;11.00;59.10;;;;;;4937200;29;20024;-74
2023/12/28 10:33:53;;;;;;;2.45;0.75;;;11.00;59.00;;;;;;4937226;29;20086;-74
2023/12/28 10:36:21;;;;;;;1.55;1.00;;;11.10;59.10;;;;;;4936194;29;20051;-77
2023/12/28 10:38:50;;;;;;;1.58;1.00;;;11.10;59.00;;;;;;4936114;29;20051;-74
2023/12/28 10:41:18;;;;;;;1.83;0.82;;;11.20;58.60;;;;;;4936085;29;20059;-76
2023/12/28 10:43:47;;;;;;;1.88;0.80;;;11.20;58.40;;;;;;4936465;29;20090;-78
2023/12/28 10:46:30;;;;;;;1.88;1.00;;;11.30;59.30;;;;;;4937548;29;20473;-76
2023/12/28 10:49:00;;;;;;;2.63;1.05;;;11.20;58.50;;;;;;4945730;29;20070;-79
2023/12/28 10:51:31;;;;;;;2.38;1.25;;;11.20;58.60;;;;;;4937419;29;20031;-77
2023/12/28 10:54:14;;;;;;;2.00;1.00;;;11.20;58.70;;;;;;4936328;29;20027;-76
2023/12/28 10:57:07;;;;;;;1.98;1.17;;;11.20;59.00;;;;;;4935824;29;20030;-79
2023/12/28 10:59:48;;;;;;;1.30;1.10;;;11.30;58.90;;;;;;4936906;29;20107;-77
2023/12/28 11:02:21;;;;;;;1.95;1.40;;;11.40;58.80;;;;;;4935601;29;20027;-77
2023/12/28 11:04:49;;;;;;;3.42;1.40;;;11.40;58.90;;;;;;4936962;29;20067;-77
2023/12/28 11:07:18;;;;;;;3.38;1.10;;;11.30;59.30;;;;;;4937057;29;20521;-78
2023/12/28 11:09:45;;;;;;;3.10;1.35;;;11.40;59.10;;;;;;4935635;29;20039;-78
2023/12/28 11:12:11;;;;;;;1.75;1.38;;;11.50;58.70;;;;;;4950595;23;20346;-79
2023/12/28 11:14:41;;;;;;;1.38;1.13;;;11.70;57.90;;;;;;4935124;29;20039;-74
2023/12/28 11:17:19;;;;;;;2.70;1.20;;;11.90;57.40;;;;;;4936621;29;20388;-77
2023/12/28 11:19:48;;;;;;;2.22;1.40;;;12.00;57.30;;;;;;5002735;23;20051;-76
2023/12/28 11:22:14;;;;;;;2.13;1.50;;;12.10;56.90;;;;;;4936329;29;20142;-77
2023/12/28 11:24:40;;;;;;;3.22;1.40;;;12.10;56.80;;;;;;4938362;29;20040;-74
2023/12/28 11:27:06;;;;;;;1.63;1.20;;;12.10;56.80;;;;;;4955458;28;20408;-77
2023/12/28 11:29:32;;;;;;;3.50;1.58;;;12.10;56.90;;;;;;4922560;29;20042;-74
2023/12/28 11:31:59;;;;;;;3.22;1.40;;;12.20;56.40;;;;;;4937919;29;20027;-75
2023/12/28 11:34:38;;;;;;;2.65;1.63;;;12.20;56.60;;;;;;4938264;29;20171;-75
2023/12/28 11:37:06;;;;;;;3.20;1.58;;;12.20;56.60;;;;;;4955829;29;20023;-75
2023/12/28 11:39:35;;;;;;;2.03;1.48;;;12.10;56.90;;;;;;4939337;29;20055;-75
2023/12/28 11:42:06;;;;;;;3.67;1.50;;;11.90;57.70;;;;;;4938162;29;20034;-75
2023/12/28 11:44:46;;;;;;;1.98;0.90;;;11.80;58.10;;;;;;4938061;29;20035;-75
2023/12/28 11:47:23;;;;;;;1.83;0.93;;;11.80;58.90;;;;;;4937865;29;20496;-77
2023/12/28 11:49:51;;;;;;;2.63;1.35;;;11.70;59.90;;;;;;4937772;29;20547;-76
2023/12/28 11:52:26;;;;;;;1.50;1.27;;;11.70;59.80;;;;;;4954875;29;20567;-75
2023/12/28 11:54:52;;;;;;;2.67;1.55;;;11.60;59.90;;;;;;4937682;29;20038;-75
2023/12/28 11:57:19;;;;;;;2.63;1.10;;;11.70;60.00;;;;;;4955140;28;20028;-78
2023/12/28 11:59:44;;;;;;;2.45;1.05;;;11.70;60.20;;;;;;4937843;29;20174;-75
2023/12/28 12:02:17;;;;;;;4.57;1.70;;;11.60;60.50;;;;;;4937976;29;20024;-77
2023/12/28 12:04:43;;;;;;;2.88;1.50;;;11.60;60.90;;;;;;4938167;29;20408;-76
2023/12/28 12:07:08;;;;;;;3.53;1.60;;;11.70;60.70;;;;;;4938360;29;20047;-78
2023/12/28 12:09:37;;;;;;;1.55;1.08;;;11.70;61.20;;;;;;4937544;29;20039;-75
2023/12/28 12:12:05;;;;;;;3.53;1.15;;;11.60;60.80;;;;;;4937754;29;20027;-77
2023/12/28 12:14:30;;;;;;;2.20;1.23;;;11.60;60.90;;;;;;4937669;29;20030;-77
2023/12/28 12:16:58;;;;;;;2.88;1.35;;;11.60;61.00;;;;;;4937660;29;20337;-77
2023/12/28 12:19:25;;;;;;;4.68;1.52;;;11.70;61.00;;;;;;4954856;29;20054;-76
2023/12/28 12:21:52;;;;;;;2.13;1.52;;;11.70;59.70;;;;;;4937818;29;20055;-76
2023/12/28 12:24:19;;;;;;;2.63;1.65;;;11.60;60.10;;;;;;4955376;29;20043;-76
2023/12/28 12:26:46;;;;;;;3.10;1.50;;;11.70;60.40;;;;;;4922073;29;20119;-75
2023/12/28 12:29:12;;;;;;;2.08;1.20;;;11.70;60.10;;;;;;4938573;29;20027;-75
2023/12/28 12:31:41;;;;;;;4.28;1.67;;;11.60;59.90;;;;;;4938569;29;20030;-76
2023/12/28 12:34:10;;;;;;;2.35;1.42;;;11.60;60.00;;;;;;4963597;28;20030;-74
2023/12/28 12:36:37;;;;;;;6.45;1.67;;;11.60;59.80;;;;;;4941405;29;20432;-76
2023/12/28 12:39:05;;;;;;;2.75;1.48;;;11.50;60.10;;;;;;4941287;29;20416;-76
2023/12/28 12:41:34;;;;;;;3.28;1.58;;;11.40;59.80;;;;;;4941352;29;20062;-76
2023/12/28 12:44:01;;;;;;;3.75;1.42;;;11.30;58.90;;;;;;4941116;29;20477;-76
2023/12/28 12:46:27;;;;;;;3.03;1.60;;;11.30;58.40;;;;;;4941010;29;20038;-76